Terminal Aerodrome Forecast
Issued by NWS

Home | Current Version | Previous Version | Text Only | Print | Product List | Glossary On
Versions: 1 2 3 4 5 6 7 8 9 10 11 12 13 14 15 16 17 18 19
778
FTUS43 KLSX 170921 AAA
TAFCPS
TAF AMD
KCPS 170921Z 1709/1806 00000KT P6SM VCFG SCT250
     FM171400 20007KT P6SM SCT250=

USA.gov is the U.S. government's official web portal to all federal, state and local government web resources and services.